createdAt,value
2022-11-04T00:00:03.885Z,975.81
2022-11-04T00:01:03.863Z,975.81
2022-11-04T00:02:03.839Z,975.77
2022-11-04T00:03:03.790Z,975.81
2022-11-04T00:04:03.742Z,975.83
2022-11-04T00:05:03.743Z,975.94
2022-11-04T00:06:03.743Z,975.91
2022-11-04T00:07:03.713Z,975.95
2022-11-04T00:08:03.708Z,975.95
2022-11-04T00:09:03.687Z,975.95
2022-11-04T00:10:03.793Z,975.96
2022-11-04T00:11:03.675Z,975.84
2022-11-04T00:12:03.763Z,975.92
2022-11-04T00:13:03.726Z,975.91
2022-11-04T00:14:03.937Z,975.93
2022-11-04T00:15:03.788Z,975.93
2022-11-04T00:16:03.636Z,976.01
2022-11-04T00:17:03.612Z,975.97
2022-11-04T00:18:03.628Z,976.00
2022-11-04T00:19:03.656Z,976.03
2022-11-04T00:20:03.762Z,976.03
2022-11-04T00:21:03.577Z,976.06
2022-11-04T00:22:03.586Z,976.06
2022-11-04T00:23:03.584Z,976.07
2022-11-04T00:24:03.551Z,976.08
2022-11-04T00:25:03.563Z,976.08
2022-11-04T00:26:03.563Z,976.10
2022-11-04T00:27:03.515Z,976.13
2022-11-04T00:28:03.555Z,976.08
2022-11-04T00:29:03.489Z,976.12
2022-11-04T00:30:03.615Z,976.13
2022-11-04T00:31:03.477Z,976.16
2022-11-04T00:32:03.566Z,976.17
2022-11-04T00:33:03.496Z,976.16
2022-11-04T00:34:03.460Z,976.13
2022-11-04T00:35:03.432Z,976.15
2022-11-04T00:36:03.508Z,976.16
2022-11-04T00:37:03.438Z,976.20
2022-11-04T00:38:03.413Z,976.17
2022-11-04T00:39:03.409Z,976.23
2022-11-04T00:40:03.380Z,976.19
2022-11-04T00:41:03.366Z,976.25
2022-11-04T00:42:03.381Z,976.34
2022-11-04T00:43:03.358Z,976.35
2022-11-04T00:44:03.415Z,976.43
2022-11-04T00:45:03.330Z,976.41
2022-11-04T00:46:03.322Z,976.41
2022-11-04T00:47:03.351Z,976.49
2022-11-04T00:48:03.316Z,976.50
2022-11-04T00:49:03.316Z,976.48
2022-11-04T00:50:03.296Z,976.54
2022-11-04T00:51:03.324Z,976.54
2022-11-04T00:52:03.331Z,976.59
2022-11-04T00:53:03.266Z,976.58
2022-11-04T00:54:03.247Z,976.62
2022-11-04T00:55:03.236Z,976.67
2022-11-04T00:56:03.246Z,976.68
2022-11-04T00:57:03.246Z,976.71
2022-11-04T00:58:03.224Z,976.67
2022-11-04T00:59:03.216Z,976.67
2022-11-04T01:00:03.190Z,976.69
2022-11-04T01:01:03.251Z,976.76
2022-11-04T01:02:03.352Z,976.74
2022-11-04T01:03:03.238Z,976.76
2022-11-04T01:04:03.155Z,976.81
2022-11-04T01:05:03.129Z,976.81
2022-11-04T01:06:03.286Z,976.81
2022-11-04T01:07:03.139Z,976.80
2022-11-04T01:08:03.165Z,976.76
2022-11-04T01:09:03.110Z,976.75
2022-11-04T01:10:03.103Z,976.72
2022-11-04T01:11:03.073Z,976.75
2022-11-04T01:12:03.087Z,976.76
2022-11-04T01:13:03.072Z,976.73
2022-11-04T01:14:03.101Z,976.73
2022-11-04T01:15:03.095Z,976.69
2022-11-04T01:16:03.030Z,976.71
2022-11-04T01:17:03.021Z,976.63
2022-11-04T01:18:03.033Z,976.59
2022-11-04T01:19:02.999Z,976.59
2022-11-04T01:20:03.087Z,976.54
2022-11-04T01:21:02.977Z,976.41
2022-11-04T01:22:02.995Z,976.39
2022-11-04T01:23:02.970Z,976.37
2022-11-04T01:24:03.013Z,976.42
2022-11-04T01:25:02.988Z,976.39
2022-11-04T01:26:02.933Z,976.44
2022-11-04T01:27:02.935Z,976.46
2022-11-04T01:28:02.905Z,976.48
2022-11-04T01:29:02.917Z,976.47
2022-11-04T01:30:02.941Z,976.47
2022-11-04T01:31:02.880Z,976.43
2022-11-04T01:32:02.885Z,976.47
2022-11-04T01:33:02.857Z,976.45
2022-11-04T01:34:02.848Z,976.52
2022-11-04T01:35:02.843Z,976.44
2022-11-04T01:36:02.827Z,976.42
2022-11-04T01:37:02.853Z,976.44
2022-11-04T01:38:02.813Z,976.40
2022-11-04T01:39:02.842Z,976.33
2022-11-04T01:40:02.793Z,976.36
2022-11-04T01:41:02.804Z,976.43
2022-11-04T01:43:02.779Z,976.40
2022-11-04T01:44:02.763Z,976.38
2022-11-04T01:45:02.733Z,976.37
2022-11-04T01:46:02.723Z,976.37
2022-11-04T01:47:02.724Z,976.33
2022-11-04T01:48:02.729Z,976.41
2022-11-04T01:49:02.723Z,976.41
2022-11-04T01:50:02.685Z,976.39
2022-11-04T01:51:02.666Z,976.47
2022-11-04T01:52:02.687Z,976.42
2022-11-04T01:53:02.657Z,976.41
2022-11-04T01:54:02.665Z,976.42
2022-11-04T01:55:02.673Z,976.37
2022-11-04T01:56:02.646Z,976.39
2022-11-04T01:57:02.622Z,976.33
2022-11-04T01:58:02.602Z,976.35
2022-11-04T01:59:02.596Z,976.34
2022-11-04T02:00:02.599Z,976.30
2022-11-04T02:01:02.695Z,976.30
2022-11-04T02:02:02.660Z,976.37
2022-11-04T02:03:02.568Z,976.39
2022-11-04T02:04:02.551Z,976.33
2022-11-04T02:05:02.543Z,976.41
2022-11-04T02:06:02.573Z,976.43
2022-11-04T02:07:02.555Z,976.38
2022-11-04T02:08:02.553Z,976.47
2022-11-04T02:09:02.528Z,976.42
2022-11-04T02:10:02.489Z,976.44
2022-11-04T02:11:02.483Z,976.50
2022-11-04T02:12:02.555Z,976.55
2022-11-04T02:13:02.454Z,976.51
2022-11-04T02:14:02.439Z,976.55
2022-11-04T02:15:02.479Z,976.58
2022-11-04T02:16:02.450Z,976.63
2022-11-04T02:17:02.545Z,976.63
2022-11-04T02:18:02.478Z,976.61
2022-11-04T02:19:02.392Z,976.69
2022-11-04T02:20:02.395Z,976.66
2022-11-04T02:21:02.384Z,976.75
2022-11-04T02:22:02.372Z,976.78
2022-11-04T02:23:02.375Z,976.76
2022-11-04T02:24:02.345Z,976.79
2022-11-04T02:25:02.352Z,976.80
2022-11-04T02:26:02.323Z,976.79
2022-11-04T02:27:02.308Z,976.83
2022-11-04T02:28:02.331Z,976.83
2022-11-04T02:29:02.321Z,976.89
2022-11-04T02:30:02.283Z,976.83
2022-11-04T02:31:34.174Z,976.89
2022-11-04T02:32:02.247Z,976.94
2022-11-04T02:33:02.233Z,976.90
2022-11-04T02:34:02.251Z,976.92
2022-11-04T02:35:02.273Z,976.86
2022-11-04T02:36:02.228Z,976.91
2022-11-04T02:37:02.206Z,976.92
2022-11-04T02:38:02.203Z,976.98
2022-11-04T02:39:02.186Z,977.03
2022-11-04T02:40:02.195Z,976.95
2022-11-04T02:41:02.280Z,976.96
2022-11-04T02:42:02.176Z,976.98
2022-11-04T02:43:02.164Z,977.06
2022-11-04T02:44:02.139Z,977.02
2022-11-04T02:45:02.154Z,977.11
2022-11-04T02:46:02.134Z,977.07
2022-11-04T02:47:02.130Z,977.08
2022-11-04T02:48:02.106Z,977.03
2022-11-04T02:49:02.087Z,977.09
2022-11-04T02:50:02.094Z,977.11
2022-11-04T02:51:02.065Z,977.15
2022-11-04T02:52:02.076Z,977.17
2022-11-04T02:53:02.042Z,977.11
2022-11-04T02:54:02.049Z,977.09
2022-11-04T02:55:02.025Z,977.11
2022-11-04T02:56:02.100Z,977.16
2022-11-04T02:57:02.005Z,977.19
2022-11-04T02:58:02.020Z,977.24
2022-11-04T02:59:02.003Z,977.22
2022-11-04T03:00:01.974Z,977.25
2022-11-04T03:01:02.040Z,977.33
2022-11-04T03:02:02.026Z,977.33
2022-11-04T03:03:02.001Z,977.42
2022-11-04T03:04:01.994Z,977.34
2022-11-04T03:05:01.923Z,977.36
2022-11-04T03:06:01.919Z,977.38
2022-11-04T03:07:02.044Z,977.41
2022-11-04T03:08:01.892Z,977.43
2022-11-04T03:09:01.905Z,977.47
2022-11-04T03:10:01.891Z,977.45
2022-11-04T03:11:01.861Z,977.41
2022-11-04T03:12:01.866Z,977.39
2022-11-04T03:13:01.846Z,977.45
2022-11-04T03:14:01.837Z,977.45
2022-11-04T03:15:01.857Z,977.55
2022-11-04T03:16:01.824Z,977.60
2022-11-04T03:17:01.810Z,977.60
2022-11-04T03:18:01.826Z,977.67
2022-11-04T03:19:01.788Z,977.58
2022-11-04T03:20:01.777Z,977.56
2022-11-04T03:21:01.784Z,977.64
2022-11-04T03:22:01.743Z,977.64
2022-11-04T03:23:01.738Z,977.59
2022-11-04T03:24:01.740Z,977.56
2022-11-04T03:25:01.748Z,977.49
2022-11-04T03:26:01.712Z,977.63
2022-11-04T03:27:01.696Z,977.65
2022-11-04T03:28:01.714Z,977.59
2022-11-04T03:29:01.684Z,977.54
2022-11-04T03:30:01.731Z,977.54
2022-11-04T03:31:01.658Z,977.56
2022-11-04T03:32:01.744Z,977.60
2022-11-04T03:33:01.633Z,977.59
2022-11-04T03:34:01.637Z,977.65
2022-11-04T03:35:01.644Z,977.67
2022-11-04T03:36:01.599Z,977.69
2022-11-04T03:37:01.594Z,977.70
2022-11-04T03:38:01.589Z,977.71
2022-11-04T03:39:01.596Z,977.71
2022-11-04T03:40:01.578Z,977.74
2022-11-04T03:41:01.585Z,977.73
2022-11-04T03:42:01.559Z,977.77
2022-11-04T03:43:01.569Z,977.76
2022-11-04T03:44:01.535Z,977.67
2022-11-04T03:45:01.562Z,977.72
2022-11-04T03:46:01.505Z,977.72
2022-11-04T03:47:01.510Z,977.72
2022-11-04T03:48:01.515Z,977.68
2022-11-04T03:49:01.506Z,977.77
2022-11-04T03:50:01.524Z,977.82
2022-11-04T03:51:01.483Z,977.84
2022-11-04T03:52:01.518Z,977.83
2022-11-04T03:53:01.447Z,977.81
2022-11-04T03:54:01.498Z,977.86
2022-11-04T03:55:01.439Z,977.88
2022-11-04T03:56:01.418Z,977.92
2022-11-04T03:57:01.405Z,978.04
2022-11-04T03:58:01.396Z,978.03
2022-11-04T03:59:01.405Z,978.05
2022-11-04T04:00:01.428Z,978.06
2022-11-04T04:01:01.417Z,978.06
2022-11-04T04:02:01.433Z,978.09
2022-11-04T04:03:01.380Z,978.04
2022-11-04T04:04:01.385Z,978.07
2022-11-04T04:05:01.320Z,978.00
2022-11-04T04:06:01.314Z,978.01
2022-11-04T04:07:01.302Z,978.01
2022-11-04T04:08:01.317Z,977.98
2022-11-04T04:09:01.288Z,978.03
2022-11-04T04:10:01.300Z,978.07
2022-11-04T04:11:01.304Z,978.11
2022-11-04T04:12:01.257Z,978.14
2022-11-04T04:13:01.275Z,978.10
2022-11-04T04:14:01.233Z,978.15
2022-11-04T04:15:01.229Z,978.13
2022-11-04T04:16:01.244Z,978.13
2022-11-04T04:17:01.239Z,978.20
2022-11-04T04:18:01.200Z,978.19
2022-11-04T04:19:01.194Z,978.23
2022-11-04T04:20:01.174Z,978.23
2022-11-04T04:21:01.167Z,978.21
2022-11-04T04:22:01.170Z,978.19
2022-11-04T04:23:01.168Z,978.21
2022-11-04T04:24:01.177Z,978.24
2022-11-04T04:25:01.137Z,978.29
2022-11-04T04:26:01.123Z,978.28
2022-11-04T04:27:01.098Z,978.26
2022-11-04T04:28:01.097Z,978.24
2022-11-04T04:29:01.084Z,978.29
2022-11-04T04:30:01.093Z,978.24
2022-11-04T04:31:01.112Z,978.19
2022-11-04T04:32:01.106Z,978.21
2022-11-04T04:33:01.063Z,978.12
2022-11-04T04:34:01.040Z,978.11
2022-11-04T04:35:01.045Z,978.13
2022-11-04T04:36:01.059Z,978.14
2022-11-04T04:37:01.003Z,978.19
2022-11-04T04:38:00.996Z,978.16
2022-11-04T04:39:00.989Z,978.24
2022-11-04T04:40:01.002Z,978.22
2022-11-04T04:41:01.003Z,978.23
2022-11-04T04:42:01.020Z,978.20
2022-11-04T04:43:00.939Z,978.32
2022-11-04T04:44:00.938Z,978.34
2022-11-04T04:45:00.909Z,978.35
2022-11-04T04:46:00.979Z,978.32
2022-11-04T04:47:01.954Z,978.29
2022-11-04T04:48:00.900Z,978.17
2022-11-04T04:49:00.888Z,978.25
2022-11-04T04:50:00.882Z,978.30
2022-11-04T04:51:00.872Z,978.34
2022-11-04T04:52:00.870Z,978.35
2022-11-04T04:53:00.864Z,978.39
2022-11-04T04:54:00.833Z,978.44
2022-11-04T04:55:00.821Z,978.51
2022-11-04T04:56:00.839Z,978.56
2022-11-04T04:57:00.809Z,978.64
2022-11-04T04:58:00.773Z,978.68
2022-11-04T04:59:00.788Z,978.80
2022-11-04T05:00:00.790Z,978.82
2022-11-04T05:01:00.845Z,978.87
2022-11-04T05:02:00.880Z,978.81
2022-11-04T05:03:00.744Z,978.75
2022-11-04T05:04:00.725Z,978.68
2022-11-04T05:05:00.771Z,978.68
2022-11-04T05:06:00.732Z,978.63
2022-11-04T05:07:00.715Z,978.62
2022-11-04T05:08:00.690Z,978.50
2022-11-04T05:09:00.690Z,978.34
2022-11-04T05:10:00.680Z,978.26
2022-11-04T05:11:00.660Z,978.25
2022-11-04T05:12:00.674Z,978.19
2022-11-04T05:13:00.665Z,978.26
2022-11-04T05:14:00.633Z,978.34
2022-11-04T05:15:00.608Z,978.34
2022-11-04T05:16:01.627Z,978.44
2022-11-04T05:17:00.633Z,978.42
2022-11-04T05:18:00.623Z,978.52
2022-11-04T05:19:00.613Z,978.55
2022-11-04T05:20:00.578Z,978.60
2022-11-04T05:21:00.595Z,978.64
2022-11-04T05:22:00.596Z,978.70
2022-11-04T05:23:00.557Z,978.85
2022-11-04T05:24:00.530Z,978.91
2022-11-04T05:25:00.526Z,978.94
2022-11-04T05:26:00.541Z,978.91
2022-11-04T05:27:00.509Z,978.91
2022-11-04T05:28:00.529Z,978.81
2022-11-04T05:29:00.585Z,978.77
2022-11-04T05:30:00.509Z,978.77
2022-11-04T05:31:00.471Z,978.72
2022-11-04T05:32:00.463Z,978.72
2022-11-04T05:33:04.631Z,978.65
2022-11-04T05:34:00.435Z,978.79
2022-11-04T05:35:00.444Z,978.84
2022-11-04T05:36:00.422Z,978.85
2022-11-04T05:37:00.406Z,978.94
2022-11-04T05:38:00.407Z,978.95
2022-11-04T05:39:00.380Z,978.90
2022-11-04T05:40:00.394Z,978.91
2022-11-04T05:41:00.453Z,978.90
2022-11-04T05:42:00.358Z,978.85
2022-11-04T05:43:00.364Z,978.86
2022-11-04T05:44:00.393Z,978.88
2022-11-04T05:45:00.331Z,978.95
2022-11-04T05:46:00.322Z,979.03
2022-11-04T05:47:00.321Z,978.96
2022-11-04T05:48:00.296Z,978.97
2022-11-04T05:49:00.305Z,978.98
2022-11-04T05:50:01.283Z,979.07
2022-11-04T05:51:00.285Z,979.05
2022-11-04T05:52:00.292Z,979.01
2022-11-04T05:53:00.396Z,979.04
2022-11-04T05:54:00.260Z,979.08
2022-11-04T05:55:00.290Z,979.00
2022-11-04T05:56:00.224Z,978.98
2022-11-04T05:57:00.209Z,978.98
2022-11-04T05:58:00.203Z,978.99
2022-11-04T05:59:00.207Z,979.03
2022-11-04T06:00:00.224Z,979.04
2022-11-04T06:01:00.167Z,979.03
2022-11-04T06:02:00.328Z,978.99
2022-11-04T06:03:00.275Z,979.06
2022-11-04T06:04:00.186Z,979.02
2022-11-04T06:05:00.159Z,979.03
2022-11-04T06:06:00.157Z,979.05
2022-11-04T06:07:00.104Z,979.07
2022-11-04T06:08:00.116Z,979.11
2022-11-04T06:09:00.103Z,979.10
2022-11-04T06:10:00.090Z,979.09
2022-11-04T06:11:00.075Z,979.04
2022-11-04T06:12:00.206Z,979.00
2022-11-04T06:13:00.100Z,979.01
2022-11-04T06:14:00.036Z,978.95
2022-11-04T06:15:00.035Z,978.99
2022-11-04T06:16:00.056Z,978.86
2022-11-04T06:17:00.120Z,978.89
2022-11-04T06:18:00.023Z,978.91
2022-11-04T06:19:03.550Z,978.88
2022-11-04T06:20:00.986Z,978.88
2022-11-04T06:20:59.979Z,979.00
2022-11-04T06:22:00.042Z,979.01
2022-11-04T06:22:59.948Z,979.01
2022-11-04T06:23:59.959Z,978.96
2022-11-04T06:24:59.932Z,978.99
2022-11-04T06:25:59.916Z,979.03
2022-11-04T06:26:59.909Z,979.06
2022-11-04T06:27:59.904Z,979.11
2022-11-04T06:28:59.912Z,979.10
2022-11-04T06:29:59.887Z,979.11
2022-11-04T06:30:59.907Z,979.13
2022-11-04T06:31:59.856Z,979.11
2022-11-04T06:32:59.846Z,979.14
2022-11-04T06:33:59.865Z,979.15
2022-11-04T06:34:59.834Z,979.12
2022-11-04T06:35:59.827Z,979.14
2022-11-04T06:36:59.827Z,979.15
2022-11-04T06:37:59.805Z,979.23
2022-11-04T06:39:04.344Z,979.27
2022-11-04T06:40:00.776Z,979.33
2022-11-04T06:40:59.810Z,979.29
2022-11-04T06:42:02.705Z,979.34
2022-11-04T06:42:59.797Z,979.25
2022-11-04T06:43:59.754Z,979.21
2022-11-04T06:44:59.733Z,979.19
2022-11-04T06:45:59.744Z,979.13
2022-11-04T06:46:59.713Z,979.09
2022-11-04T06:47:59.722Z,979.10
2022-11-04T06:48:59.691Z,979.09
2022-11-04T06:49:59.694Z,979.05
2022-11-04T06:50:59.675Z,979.02
2022-11-04T06:51:59.681Z,979.05
2022-11-04T06:52:59.665Z,979.11
2022-11-04T06:53:59.631Z,979.15
2022-11-04T06:54:59.659Z,979.20
2022-11-04T06:55:59.690Z,979.28
2022-11-04T06:56:59.652Z,979.24
2022-11-04T06:57:59.595Z,979.26
2022-11-04T06:58:59.592Z,979.34
2022-11-04T06:59:59.604Z,979.32
2022-11-04T07:00:59.579Z,979.33
2022-11-04T07:02:00.698Z,979.43
2022-11-04T07:02:59.542Z,979.47
2022-11-04T07:03:59.537Z,979.52
2022-11-04T07:04:59.558Z,979.55
2022-11-04T07:05:59.518Z,979.59
2022-11-04T07:06:59.598Z,979.62
2022-11-04T07:07:59.493Z,979.59
2022-11-04T07:08:59.492Z,979.63
2022-11-04T07:09:59.575Z,979.65
2022-11-04T07:10:59.463Z,979.65
2022-11-04T07:11:59.455Z,979.66
2022-11-04T07:12:59.443Z,979.70
2022-11-04T07:14:00.456Z,979.69
2022-11-04T07:14:59.421Z,979.69
2022-11-04T07:15:59.495Z,979.71
2022-11-04T07:16:59.426Z,979.72
2022-11-04T07:17:59.394Z,979.74
2022-11-04T07:18:59.388Z,979.73
2022-11-04T07:19:59.436Z,979.78
2022-11-04T07:20:59.425Z,979.81
2022-11-04T07:21:59.383Z,979.85
2022-11-04T07:22:59.343Z,979.86
2022-11-04T07:23:59.364Z,979.86
2022-11-04T07:24:59.361Z,979.89
2022-11-04T07:25:59.320Z,979.91
2022-11-04T07:26:59.320Z,979.89
2022-11-04T07:28:02.122Z,979.86
2022-11-04T07:29:00.303Z,979.91
2022-11-04T07:29:59.352Z,979.88
2022-11-04T07:30:59.383Z,979.93
2022-11-04T07:31:59.255Z,979.98
2022-11-04T07:32:59.331Z,979.92
2022-11-04T07:33:59.240Z,979.89
2022-11-04T07:34:59.244Z,979.91
2022-11-04T07:35:59.257Z,979.87
2022-11-04T07:36:59.210Z,979.80
2022-11-04T07:37:59.219Z,979.82
2022-11-04T07:38:59.194Z,979.84
2022-11-04T07:39:59.181Z,979.80
2022-11-04T07:40:59.167Z,979.82
2022-11-04T07:41:59.773Z,979.90
2022-11-04T07:42:59.182Z,979.86
2022-11-04T07:43:59.148Z,979.95
2022-11-04T07:44:59.134Z,980.01
2022-11-04T07:45:59.115Z,980.03
2022-11-04T07:46:59.114Z,980.01
2022-11-04T07:47:59.086Z,980.03
2022-11-04T07:48:59.136Z,980.06
2022-11-04T07:49:59.122Z,980.12
2022-11-04T07:50:59.069Z,980.21
2022-11-04T07:51:59.057Z,980.26
2022-11-04T07:52:59.082Z,980.23
2022-11-04T07:53:59.067Z,980.29
2022-11-04T07:54:59.034Z,980.30
2022-11-04T07:55:59.006Z,980.23
2022-11-04T07:56:58.994Z,980.23
2022-11-04T07:57:58.986Z,980.31
2022-11-04T07:58:59.001Z,980.30
2022-11-04T07:59:59.003Z,980.24
2022-11-04T08:00:58.957Z,980.34
2022-11-04T08:01:59.143Z,980.36
2022-11-04T08:02:59.003Z,980.41
2022-11-04T08:03:58.935Z,980.38
2022-11-04T08:04:58.932Z,980.42
2022-11-04T08:05:58.909Z,980.37
2022-11-04T08:06:58.903Z,980.38
2022-11-04T08:07:58.889Z,980.34
2022-11-04T08:08:58.993Z,980.33
2022-11-04T08:09:58.861Z,980.36
2022-11-04T08:10:58.854Z,980.37
2022-11-04T08:11:58.860Z,980.31
2022-11-04T08:12:58.864Z,980.40
2022-11-04T08:13:58.874Z,980.30
2022-11-04T08:14:58.884Z,980.35
2022-11-04T08:15:58.811Z,980.39
2022-11-04T08:16:58.805Z,980.41
2022-11-04T08:17:58.807Z,980.40
2022-11-04T08:18:58.804Z,980.36
2022-11-04T08:19:58.778Z,980.36
2022-11-04T08:20:58.765Z,980.39
2022-11-04T08:21:58.752Z,980.34
2022-11-04T08:22:58.740Z,980.28
2022-11-04T08:23:58.748Z,980.24
2022-11-04T08:24:58.744Z,980.27
2022-11-04T08:25:58.815Z,980.23
2022-11-04T08:26:58.703Z,980.10
2022-11-04T08:28:01.105Z,980.10
2022-11-04T08:28:58.696Z,980.12
2022-11-04T08:29:58.690Z,980.12
2022-11-04T08:31:00.553Z,980.17
2022-11-04T08:32:24.571Z,980.14
2022-11-04T08:32:58.687Z,980.17
2022-11-04T08:33:58.684Z,980.14
2022-11-04T08:34:58.647Z,980.11
2022-11-04T08:35:58.657Z,980.14
2022-11-04T08:36:58.625Z,980.12
2022-11-04T08:37:58.605Z,980.08
2022-11-04T08:38:58.592Z,980.09
2022-11-04T08:39:58.586Z,980.09
2022-11-04T08:41:00.087Z,980.13
2022-11-04T08:41:58.599Z,980.11
2022-11-04T08:42:58.560Z,980.12
2022-11-04T08:43:58.552Z,980.12
2022-11-04T08:44:58.552Z,980.13
2022-11-04T08:45:58.546Z,980.13
2022-11-04T08:46:58.539Z,980.08
2022-11-04T08:48:04.176Z,980.04
2022-11-04T08:49:01.167Z,980.03
2022-11-04T08:49:58.500Z,980.06
2022-11-04T08:50:58.490Z,980.01
2022-11-04T08:51:58.471Z,980.04
2022-11-04T08:52:58.492Z,979.96
2022-11-04T08:53:58.448Z,979.96
2022-11-04T08:54:58.463Z,979.99
2022-11-04T08:55:58.429Z,979.90
2022-11-04T08:56:58.427Z,979.90
2022-11-04T08:57:58.470Z,979.88
2022-11-04T08:58:58.411Z,979.90
2022-11-04T08:59:58.403Z,979.92
2022-11-04T09:00:58.374Z,979.89
2022-11-04T09:01:58.497Z,979.90
2022-11-04T09:02:58.359Z,979.86
2022-11-04T09:03:58.395Z,979.86
2022-11-04T09:04:58.351Z,979.91
2022-11-04T09:05:58.332Z,979.82
2022-11-04T09:06:58.332Z,979.83
2022-11-04T09:07:58.315Z,979.79
2022-11-04T09:08:58.366Z,979.84
2022-11-04T09:09:58.347Z,979.81
2022-11-04T09:10:58.310Z,979.82
2022-11-04T09:11:58.271Z,979.82
2022-11-04T09:12:58.256Z,979.83
2022-11-04T09:13:58.255Z,979.83
2022-11-04T09:14:58.289Z,979.84
2022-11-04T09:15:58.286Z,979.86
2022-11-04T09:16:58.231Z,979.95
2022-11-04T09:17:58.218Z,979.86
2022-11-04T09:18:58.205Z,979.95
2022-11-04T09:19:58.218Z,979.95
2022-11-04T09:20:58.369Z,979.99
2022-11-04T09:21:58.190Z,980.02
2022-11-04T09:22:58.160Z,979.98
2022-11-04T09:23:58.170Z,980.02
2022-11-04T09:24:58.160Z,980.03
2022-11-04T09:25:58.130Z,980.05
2022-11-04T09:26:58.127Z,980.11
2022-11-04T09:27:58.134Z,980.09
2022-11-04T09:28:58.294Z,980.22
2022-11-04T09:29:59.112Z,980.27
2022-11-04T09:30:58.102Z,980.20
2022-11-04T09:31:58.074Z,980.26
2022-11-04T09:32:58.066Z,980.29
2022-11-04T09:33:58.053Z,980.29
2022-11-04T09:34:58.068Z,980.22
2022-11-04T09:35:58.058Z,980.25
2022-11-04T09:36:58.108Z,980.21
2022-11-04T09:37:58.017Z,980.28
2022-11-04T09:38:58.000Z,980.30
2022-11-04T09:39:57.999Z,980.33
2022-11-04T09:40:58.008Z,980.26
2022-11-04T09:41:58.036Z,980.38
2022-11-04T09:42:57.986Z,980.34
2022-11-04T09:43:58.003Z,980.32
2022-11-04T09:45:20.666Z,980.36
2022-11-04T09:46:00.035Z,980.37
2022-11-04T09:46:57.918Z,980.43
2022-11-04T09:47:57.911Z,980.38
2022-11-04T09:48:57.910Z,980.30
2022-11-04T09:49:58.021Z,980.42
2022-11-04T09:50:57.898Z,980.36
2022-11-04T09:51:57.875Z,980.43
2022-11-04T09:52:57.930Z,980.34
2022-11-04T09:53:57.888Z,980.41
2022-11-04T09:54:57.846Z,980.36
2022-11-04T09:55:57.847Z,980.35
2022-11-04T09:56:57.838Z,980.39
2022-11-04T09:57:57.897Z,980.42
2022-11-04T09:58:57.812Z,980.34
2022-11-04T09:59:57.788Z,980.35
2022-11-04T10:00:57.848Z,980.30
2022-11-04T10:01:57.896Z,980.36
2022-11-04T10:02:57.803Z,980.29
2022-11-04T10:03:57.819Z,980.27
2022-11-04T10:04:57.741Z,980.29
2022-11-04T10:05:57.745Z,980.20
2022-11-04T10:06:57.720Z,980.25
2022-11-04T10:07:57.749Z,980.11
2022-11-04T10:08:57.818Z,980.12
2022-11-04T10:09:57.704Z,980.03
2022-11-04T10:10:57.700Z,980.04
2022-11-04T10:11:57.688Z,980.01
2022-11-04T10:12:57.660Z,979.93
2022-11-04T10:13:57.671Z,979.90
2022-11-04T10:14:57.639Z,979.96
2022-11-04T10:15:57.633Z,979.87
2022-11-04T10:16:57.690Z,979.90
2022-11-04T10:17:57.633Z,979.90
2022-11-04T10:18:57.603Z,979.86
2022-11-04T10:19:57.673Z,979.86
2022-11-04T10:20:57.644Z,979.83
2022-11-04T10:21:57.603Z,979.80
2022-11-04T10:22:57.582Z,979.84
2022-11-04T10:23:57.541Z,979.79
2022-11-04T10:24:57.633Z,979.85
2022-11-04T10:25:57.599Z,979.81
2022-11-04T10:27:00.375Z,979.80
2022-11-04T10:27:57.519Z,979.86
2022-11-04T10:28:57.554Z,979.80
2022-11-04T10:29:57.568Z,979.82
2022-11-04T10:30:57.560Z,979.88
2022-11-04T10:31:57.482Z,979.91
2022-11-04T10:32:57.484Z,979.81
2022-11-04T10:33:57.511Z,979.80
2022-11-04T10:34:57.489Z,979.85
2022-11-04T10:35:57.491Z,979.83
2022-11-04T10:36:57.466Z,979.85
2022-11-04T10:37:57.474Z,979.86
2022-11-04T10:38:57.418Z,979.85
2022-11-04T10:39:57.434Z,979.90
2022-11-04T10:40:58.317Z,979.79
2022-11-04T10:41:57.390Z,979.77
2022-11-04T10:42:57.409Z,979.79
2022-11-04T10:43:57.368Z,979.83
2022-11-04T10:44:57.380Z,979.82
2022-11-04T10:45:57.391Z,979.90
2022-11-04T10:46:57.344Z,979.84
2022-11-04T10:47:57.362Z,979.82
2022-11-04T10:48:57.325Z,979.86
2022-11-04T10:50:28.855Z,979.88
2022-11-04T10:50:59.343Z,979.89
2022-11-04T10:51:57.300Z,979.86
2022-11-04T10:52:57.284Z,979.88
2022-11-04T10:53:57.388Z,979.85
2022-11-04T10:54:57.283Z,979.81
2022-11-04T10:55:57.277Z,979.87
2022-11-04T10:56:57.337Z,979.79
2022-11-04T10:57:57.245Z,979.81
2022-11-04T10:58:57.224Z,979.89
2022-11-04T10:59:57.248Z,979.80
2022-11-04T11:00:57.271Z,979.82
2022-11-04T11:01:57.352Z,979.86
2022-11-04T11:02:57.179Z,979.88
2022-11-04T11:03:57.166Z,979.87
2022-11-04T11:04:57.156Z,979.88
2022-11-04T11:05:57.180Z,979.81
2022-11-04T11:06:57.151Z,979.79
2022-11-04T11:07:57.142Z,979.82
2022-11-04T11:08:57.117Z,979.83
2022-11-04T11:09:57.131Z,979.85
2022-11-04T11:10:57.097Z,979.85
2022-11-04T11:11:57.108Z,979.83
2022-11-04T11:12:57.078Z,979.89
2022-11-04T11:13:57.089Z,979.83
2022-11-04T11:14:57.115Z,979.88
2022-11-04T11:15:57.045Z,979.87
2022-11-04T11:16:57.049Z,979.88
2022-11-04T11:17:57.026Z,979.86
2022-11-04T11:18:58.017Z,979.84
2022-11-04T11:19:57.026Z,979.80
2022-11-04T11:20:57.047Z,979.77
2022-11-04T11:21:57.050Z,979.82
2022-11-04T11:23:01.937Z,979.78
2022-11-04T11:23:59.059Z,979.82
2022-11-04T11:24:56.950Z,979.76
2022-11-04T11:25:56.989Z,979.80
2022-11-04T11:26:56.930Z,979.73
2022-11-04T11:27:56.973Z,979.74
2022-11-04T11:28:59.346Z,979.70
2022-11-04T11:29:57.971Z,979.67
2022-11-04T11:30:56.899Z,979.69
2022-11-04T11:31:56.894Z,979.70
2022-11-04T11:32:56.878Z,979.68
2022-11-04T11:33:56.897Z,979.76
2022-11-04T11:34:56.891Z,979.71
2022-11-04T11:35:56.854Z,979.71
2022-11-04T11:36:56.846Z,979.67
2022-11-04T11:37:56.859Z,979.67
2022-11-04T11:38:56.854Z,979.67
2022-11-04T11:39:56.810Z,979.71
2022-11-04T11:41:23.438Z,979.68
2022-11-04T11:41:58.787Z,979.68
2022-11-04T11:42:56.907Z,979.74
2022-11-04T11:43:56.808Z,979.66
2022-11-04T11:44:56.784Z,979.72
2022-11-04T11:45:56.778Z,979.69
2022-11-04T11:46:56.777Z,979.68
2022-11-04T11:47:56.724Z,979.65
2022-11-04T11:48:56.745Z,979.67
2022-11-04T11:49:56.698Z,979.60
2022-11-04T11:50:56.701Z,979.66
2022-11-04T11:51:56.773Z,979.58
2022-11-04T11:52:57.647Z,979.63
2022-11-04T11:53:56.667Z,979.65
2022-11-04T11:54:56.697Z,979.62
2022-11-04T11:55:56.676Z,979.58
2022-11-04T11:57:13.297Z,979.55
2022-11-04T12:01:03.518Z,979.66
2022-11-04T12:01:57.673Z,979.66
2022-11-04T12:02:57.133Z,979.68
2022-11-04T12:09:57.510Z,979.79
2022-11-04T12:10:56.497Z,979.80
2022-11-04T12:11:56.487Z,979.74
2022-11-04T12:12:56.483Z,979.74
2022-11-04T12:13:56.513Z,979.82
2022-11-04T12:14:56.462Z,979.71
2022-11-04T12:15:56.465Z,979.72
2022-11-04T12:16:56.448Z,979.75
2022-11-04T12:17:56.430Z,979.71
2022-11-04T12:18:56.461Z,979.65
2022-11-04T12:19:56.407Z,979.71
2022-11-04T12:20:56.434Z,979.70
2022-11-04T12:21:56.383Z,979.78
2022-11-04T12:22:56.416Z,979.79
2022-11-04T12:23:56.369Z,979.78
2022-11-04T12:24:56.372Z,979.79
2022-11-04T12:25:56.361Z,979.80
2022-11-04T12:26:56.333Z,979.78
2022-11-04T12:27:56.323Z,979.77
2022-11-04T12:28:56.320Z,979.76
2022-11-04T12:29:56.311Z,979.77
2022-11-04T12:30:56.322Z,979.75
2022-11-04T12:31:56.292Z,979.75
2022-11-04T12:32:56.275Z,979.75
2022-11-04T12:33:56.286Z,979.75
2022-11-04T12:34:56.292Z,979.72
2022-11-04T12:35:56.383Z,979.68
2022-11-04T12:36:56.218Z,979.70
2022-11-04T12:37:56.222Z,979.71